Fortunate — 3FLG6 — position and weather

sailwx.info

Track history (hours):
 
Tides and Currents Weather Stations Pressure Air Temp Water Temp Dewpoint Dewpoint Depression Visibility Wind Speed Wind Dir Waves Ship Positions

Fortunate

Last reported at 2016-Sep-26 02:33 UTC. Time now 2016-Sep-26 20:47 UTC.
Position N 38°31' E 015°34'.

Length 275 m; draft 10.9 m.

Type: Ship (hazmat cat A). MMSI: 356708000.

Date/timePositionNaut miles runAvg speedWind from/ knotsBaromVisibWave heightAir tempDewpointWater temp
2016-Sep-26 02:33N 38°31' E 015°34'1111.4
2016-Sep-26 01:33N 38°21' E 015°41'1111.4
2016-Sep-26 00:34N 38°10' E 015°36'3511.6
2016-Sep-25 21:33N 37°45' E 016°07'  
2016-Sep-22 03:08N 31°51' E 034°38'3 0.8
2016-Sep-21 23:11N 31°51' E 034°35'0 0.2
2016-Sep-21 22:29N 31°51' E 034°34'0 0.1
2016-Sep-21 19:32N 31°50' E 034°34'27 9.1
2016-Sep-21 16:33N 32°17' E 034°39'37 5.2
2016-Sep-21 09:32N 32°49' E 035°01'0 0.0
2016-Sep-21 08:32N 32°49' E 035°01'0 0.0
2016-Sep-21 05:32N 32°49' E 035°01'0 0.0
2016-Sep-21 03:32N 32°49' E 035°01'0 0.0
2016-Sep-21 02:32N 32°49' E 035°01'0 0.0
2016-Sep-20 17:32N 32°49' E 035°01'0 0.0
2016-Sep-20 14:32N 32°49' E 035°01'0 0.0
2016-Sep-20 13:32N 32°49' E 035°01'2 0.7
2016-Sep-20 10:33N 32°51' E 035°00'3 1.5
2016-Sep-20 08:31N 32°54' E 034°59'0 0.1
2016-Sep-20 07:31N 32°54' E 034°59'5 5.2
2016-Sep-20 06:33N 32°53' E 034°54'4912.3
2016-Sep-20 02:33N 32°06' E 034°35'15 0.6
2016-Sep-19 02:29N 31°51' E 034°38'43 6.2
2016-Sep-18 19:27N 32°07' E 033°50'4411.4
2016-Sep-18 15:33N 32°19' E 032°60'6412.8
2016-Sep-18 10:33N 32°35' E 031°46'1313.3
2016-Sep-18 09:33N 32°39' E 031°31'11612.9
2016-Sep-18 00:33N 33°09' E 029°17'59613.1
2016-Sep-16 03:10N 35°44' E 017°39'  
Track history (hours):
 
Tides and Currents Weather Stations Pressure Air Temp Water Temp Dewpoint Dewpoint Depression Visibility Wind Speed Wind Dir Waves Ship Positions

Fortunate

Last reported at 2016-Sep-26 02:33 UTC. Time now 2016-Sep-26 20:47 UTC.
Position N 38°31' E 015°34'.

Length 275 m; draft 10.9 m.

Type: Ship (hazmat cat A). MMSI: 356708000.

Date/timePositionNaut miles runAvg speedWind from/ knotsBaromVisibWave heightAir tempDewpointWater temp
2016-Sep-26 02:33N 38°31' E 015°34'1111.4
2016-Sep-26 01:33N 38°21' E 015°41'1111.4
2016-Sep-26 00:34N 38°10' E 015°36'3511.6
2016-Sep-25 21:33N 37°45' E 016°07'  
2016-Sep-22 03:08N 31°51' E 034°38'3 0.8
2016-Sep-21 23:11N 31°51' E 034°35'0 0.2
2016-Sep-21 22:29N 31°51' E 034°34'0 0.1
2016-Sep-21 19:32N 31°50' E 034°34'27 9.1
2016-Sep-21 16:33N 32°17' E 034°39'37 5.2
2016-Sep-21 09:32N 32°49' E 035°01'0 0.0
2016-Sep-21 08:32N 32°49' E 035°01'0 0.0
2016-Sep-21 05:32N 32°49' E 035°01'0 0.0
2016-Sep-21 03:32N 32°49' E 035°01'0 0.0
2016-Sep-21 02:32N 32°49' E 035°01'0 0.0
2016-Sep-20 17:32N 32°49' E 035°01'0 0.0
2016-Sep-20 14:32N 32°49' E 035°01'0 0.0
2016-Sep-20 13:32N 32°49' E 035°01'2 0.7
2016-Sep-20 10:33N 32°51' E 035°00'3 1.5
2016-Sep-20 08:31N 32°54' E 034°59'0 0.1
2016-Sep-20 07:31N 32°54' E 034°59'5 5.2
2016-Sep-20 06:33N 32°53' E 034°54'4912.3
2016-Sep-20 02:33N 32°06' E 034°35'15 0.6
2016-Sep-19 02:29N 31°51' E 034°38'43 6.2
2016-Sep-18 19:27N 32°07' E 033°50'4411.4
2016-Sep-18 15:33N 32°19' E 032°60'6412.8
2016-Sep-18 10:33N 32°35' E 031°46'1313.3
2016-Sep-18 09:33N 32°39' E 031°31'11612.9
2016-Sep-18 00:33N 33°09' E 029°17'59613.1
2016-Sep-16 03:10N 35°44' E 017°39'  

Dump ship's entire track history